createdAt,value
2018-04-14T00:00:54.089Z,10.50
2018-04-14T00:03:22.065Z,10.87
2018-04-14T00:05:50.577Z,11.30
2018-04-14T00:08:19.638Z,11.30
2018-04-14T00:10:48.225Z,11.37
2018-04-14T00:13:16.718Z,11.50
2018-04-14T00:15:44.881Z,10.80
2018-04-14T00:18:12.858Z,11.37
2018-04-14T00:20:41.633Z,12.40
2018-04-14T00:23:09.701Z,11.60
2018-04-14T00:25:38.061Z,14.60
2018-04-14T00:28:06.578Z,15.10
2018-04-14T00:30:34.842Z,12.70
2018-04-14T00:33:03.081Z,12.50
2018-04-14T00:35:31.512Z,10.67
2018-04-14T00:37:59.357Z,10.20
2018-04-14T00:40:27.753Z,9.70
2018-04-14T00:42:55.913Z,9.90
2018-04-14T00:45:24.457Z,10.10
2018-04-14T00:47:52.573Z,9.97
2018-04-14T00:50:22.076Z,10.33
2018-04-14T00:52:50.413Z,9.67
2018-04-14T00:55:18.544Z,9.40
2018-04-14T00:57:47.513Z,9.57
2018-04-14T01:00:15.696Z,10.33
2018-04-14T01:02:44.021Z,8.70
2018-04-14T01:05:12.045Z,9.70
2018-04-14T01:07:40.713Z,9.70
2018-04-14T01:10:08.889Z,11.00
2018-04-14T01:12:36.858Z,11.03
2018-04-14T01:15:05.005Z,10.63
2018-04-14T01:17:33.526Z,12.53
2018-04-14T01:20:01.718Z,11.13
2018-04-14T01:22:30.478Z,11.33
2018-04-14T01:24:58.554Z,11.10
2018-04-14T01:27:26.616Z,12.10
2018-04-14T01:29:54.893Z,11.20
2018-04-14T01:32:23.585Z,12.07
2018-04-14T01:34:51.850Z,12.70
2018-04-14T01:37:19.894Z,12.43
2018-04-14T01:39:48.553Z,12.77
2018-04-14T01:42:16.475Z,12.33
2018-04-14T01:44:44.341Z,12.20
2018-04-14T01:47:12.212Z,11.50
2018-04-14T01:49:41.375Z,13.10
2018-04-14T01:52:09.678Z,12.30
2018-04-14T01:54:37.615Z,12.13
2018-04-14T01:57:05.518Z,12.13
2018-04-14T01:59:33.998Z,12.80
2018-04-14T02:02:02.474Z,12.20
2018-04-14T02:04:30.858Z,11.80
2018-04-14T02:06:59.237Z,11.50
2018-04-14T02:09:27.626Z,12.83
2018-04-14T02:11:56.158Z,11.67
2018-04-14T02:14:24.892Z,12.30
2018-04-14T02:16:52.961Z,12.63
2018-04-14T02:19:22.774Z,10.80
2018-04-14T02:21:51.039Z,11.10
2018-04-14T02:24:18.903Z,11.87
2018-04-14T02:26:47.334Z,11.70
2018-04-14T02:29:16.134Z,12.57
2018-04-14T02:31:44.735Z,12.30
2018-04-14T02:34:13.041Z,12.77
2018-04-14T02:36:42.128Z,12.60
2018-04-14T02:39:10.093Z,12.83
2018-04-14T02:41:38.434Z,12.87
2018-04-14T02:44:06.763Z,13.20
2018-04-14T02:46:35.538Z,13.20
2018-04-14T02:49:04.138Z,13.30
2018-04-14T02:51:32.190Z,12.70
2018-04-14T02:54:00.514Z,12.90
2018-04-14T02:56:28.842Z,12.13
2018-04-14T02:58:57.102Z,12.80
2018-04-14T03:01:25.704Z,12.50
2018-04-14T03:03:53.568Z,12.00
2018-04-14T03:06:21.754Z,13.07
2018-04-14T03:08:51.245Z,13.47
2018-04-14T03:11:19.338Z,12.57
2018-04-14T03:13:48.526Z,13.60
2018-04-14T03:16:16.478Z,12.40
2018-04-14T03:18:44.347Z,14.40
2018-04-14T03:21:12.834Z,13.97
2018-04-14T03:23:40.793Z,14.10
2018-04-14T03:26:09.385Z,13.50
2018-04-14T03:28:37.241Z,13.30
2018-04-14T03:31:05.122Z,13.93
2018-04-14T03:33:33.281Z,13.93
2018-04-14T03:36:01.661Z,15.33
2018-04-14T03:38:29.753Z,13.63
2018-04-14T03:40:59.492Z,14.40
2018-04-14T03:43:27.532Z,14.67
2018-04-14T03:45:55.689Z,14.67
2018-04-14T03:48:23.657Z,15.00
2018-04-14T03:50:51.932Z,15.20
2018-04-14T03:53:20.506Z,15.00
2018-04-14T03:55:48.494Z,15.57
2018-04-14T03:58:16.971Z,14.57
2018-04-14T04:00:44.930Z,15.43
2018-04-14T04:03:12.793Z,15.90
2018-04-14T04:05:41.377Z,15.17
2018-04-14T04:08:10.493Z,14.50
2018-04-14T04:10:39.372Z,15.47
2018-04-14T04:13:07.849Z,15.60
2018-04-14T04:15:36.147Z,15.50
2018-04-14T04:18:05.085Z,14.90
2018-04-14T04:20:52.054Z,14.23
2018-04-14T04:23:32.897Z,15.07
2018-04-14T04:26:01.169Z,15.23
2018-04-14T04:28:29.473Z,15.60
2018-04-14T04:30:58.353Z,15.77
2018-04-14T04:33:26.853Z,15.57
2018-04-14T04:35:55.814Z,15.30
2018-04-14T04:38:24.198Z,15.70
2018-04-14T04:40:52.646Z,15.60
2018-04-14T04:43:21.278Z,15.83
2018-04-14T04:45:49.399Z,14.00
2018-04-14T04:48:17.609Z,14.87
2018-04-14T04:50:45.598Z,14.20
2018-04-14T04:53:14.663Z,14.13
2018-04-14T04:55:42.917Z,14.93
2018-04-14T04:58:11.434Z,14.30
2018-04-14T05:00:39.585Z,14.70
2018-04-14T05:03:07.461Z,14.30
2018-04-14T05:05:36.246Z,14.03
2018-04-14T05:08:04.526Z,14.20
2018-04-14T05:10:33.014Z,13.80
2018-04-14T05:13:01.918Z,14.20
2018-04-14T05:15:30.798Z,14.33
2018-04-14T05:17:59.878Z,14.00
2018-04-14T05:20:28.280Z,14.60
2018-04-14T05:22:57.215Z,15.23
2018-04-14T05:25:25.441Z,14.50
2018-04-14T05:27:53.919Z,14.10
2018-04-14T05:30:22.487Z,14.10
2018-04-14T05:32:50.774Z,14.20
2018-04-14T05:35:18.959Z,14.67
2018-04-14T05:37:48.157Z,15.33
2018-04-14T05:40:17.517Z,15.40
2018-04-14T05:42:45.636Z,15.20
2018-04-14T05:45:14.921Z,15.80
2018-04-14T05:47:42.973Z,14.67
2018-04-14T05:50:11.254Z,15.03
2018-04-14T05:52:39.478Z,15.67
2018-04-14T05:55:08.118Z,15.03
2018-04-14T05:57:36.251Z,14.13
2018-04-14T06:00:04.454Z,14.63
2018-04-14T06:02:32.838Z,14.20
2018-04-14T06:05:01.122Z,14.47
2018-04-14T06:07:29.600Z,14.80
2018-04-14T06:09:58.077Z,15.33
2018-04-14T06:12:26.277Z,14.37
2018-04-14T06:14:55.712Z,14.50
2018-04-14T06:17:24.318Z,14.93
2018-04-14T06:19:52.639Z,14.53
2018-04-14T06:22:22.068Z,14.77
2018-04-14T06:24:50.333Z,15.20
2018-04-14T06:27:19.805Z,14.53
2018-04-14T06:29:47.877Z,14.87
2018-04-14T06:32:16.053Z,14.07
2018-04-14T06:34:44.645Z,14.53
2018-04-14T06:37:13.541Z,13.60
2018-04-14T06:39:42.718Z,13.90
2018-04-14T06:42:11.284Z,15.03
2018-04-14T06:44:39.584Z,15.17
2018-04-14T06:47:07.760Z,13.37
2018-04-14T06:49:36.038Z,12.80
2018-04-14T06:52:05.797Z,13.93
2018-04-14T06:54:34.013Z,14.53
2018-04-14T06:57:02.725Z,15.63
2018-04-14T06:59:32.597Z,15.10
2018-04-14T07:02:00.981Z,16.07
2018-04-14T07:04:29.172Z,14.83
2018-04-14T07:06:57.542Z,15.40
2018-04-14T07:09:26.046Z,14.17
2018-04-14T07:11:54.807Z,14.37
2018-04-14T07:14:22.862Z,15.07
2018-04-14T07:16:51.421Z,15.30
2018-04-14T07:19:19.426Z,13.83
2018-04-14T07:21:49.370Z,14.47
2018-04-14T07:24:19.077Z,14.93
2018-04-14T07:26:48.148Z,15.27
2018-04-14T07:29:17.462Z,14.50
2018-04-14T07:31:46.334Z,13.83
2018-04-14T07:34:15.125Z,14.17
2018-04-14T07:36:43.488Z,15.00
2018-04-14T07:39:12.141Z,13.53
2018-04-14T07:41:40.853Z,14.03
2018-04-14T07:44:09.038Z,13.20
2018-04-14T07:46:37.543Z,14.30
2018-04-14T07:49:09.697Z,14.80
2018-04-14T07:51:38.211Z,13.87
2018-04-14T07:54:06.460Z,13.83
2018-04-14T07:56:35.008Z,14.63
2018-04-14T07:59:03.432Z,14.80
2018-04-14T08:01:33.060Z,13.83
2018-04-14T08:04:01.587Z,14.40
2018-04-14T08:06:30.311Z,13.47
2018-04-14T08:08:59.690Z,13.50
2018-04-14T08:11:28.182Z,14.57
2018-04-14T08:13:57.694Z,13.30
2018-04-14T08:16:26.558Z,13.67
2018-04-14T08:18:56.167Z,14.40
2018-04-14T08:21:24.141Z,14.40
2018-04-14T08:23:52.002Z,13.00
2018-04-14T08:26:19.982Z,13.63
2018-04-14T08:28:48.020Z,13.87
2018-04-14T08:31:16.079Z,12.50
2018-04-14T08:33:44.605Z,14.70
2018-04-14T08:36:12.756Z,13.23
2018-04-14T08:38:40.836Z,12.90
2018-04-14T08:41:09.013Z,14.27
2018-04-14T08:43:37.259Z,14.00
2018-04-14T08:46:05.489Z,13.17
2018-04-14T08:48:34.733Z,13.90
2018-04-14T08:51:03.228Z,13.60
2018-04-14T08:53:31.290Z,13.10
2018-04-14T08:55:59.581Z,14.40
2018-04-14T08:58:27.450Z,13.40
2018-04-14T09:00:56.026Z,12.03
2018-04-14T09:03:24.416Z,10.87
2018-04-14T09:05:52.458Z,12.13
2018-04-14T09:08:20.750Z,11.70
2018-04-14T09:10:48.936Z,12.17
2018-04-14T09:13:17.281Z,11.80
2018-04-14T09:15:45.482Z,12.67
2018-04-14T09:18:13.664Z,12.20
2018-04-14T09:20:42.547Z,12.30
2018-04-14T09:23:10.582Z,12.70
2018-04-14T09:25:39.615Z,12.80
2018-04-14T09:28:07.885Z,12.50
2018-04-14T09:30:35.959Z,13.57
2018-04-14T09:33:04.233Z,11.50
2018-04-14T09:35:32.827Z,13.07
2018-04-14T09:38:03.011Z,12.50
2018-04-14T09:40:31.319Z,12.60
2018-04-14T09:42:59.264Z,13.17
2018-04-14T09:45:27.353Z,12.73
2018-04-14T09:47:55.321Z,13.53
2018-04-14T09:50:23.606Z,14.07
2018-04-14T09:52:51.777Z,14.47
2018-04-14T09:55:19.855Z,15.30
2018-04-14T09:57:48.334Z,15.30
2018-04-14T10:00:27.153Z,15.00
2018-04-14T10:05:56.471Z,14.67
2018-04-14T10:08:24.813Z,15.40
2018-04-14T10:10:53.122Z,14.93
2018-04-14T10:13:21.496Z,15.37
2018-04-14T10:15:49.874Z,14.80
2018-04-14T10:18:18.264Z,14.93
2018-04-14T10:20:46.433Z,15.20
2018-04-14T10:23:14.813Z,15.60
2018-04-14T10:25:42.977Z,17.93
2018-04-14T10:28:11.169Z,14.27
2018-04-14T10:30:39.386Z,15.40
2018-04-14T10:33:07.501Z,16.77
2018-04-14T10:35:35.677Z,16.40
2018-04-14T10:38:03.987Z,15.80
2018-04-14T10:40:33.155Z,16.17
2018-04-14T10:43:01.935Z,17.27
2018-04-14T10:45:30.318Z,17.80
2018-04-14T10:47:58.393Z,16.70
2018-04-14T10:50:26.782Z,16.23
2018-04-14T10:52:55.889Z,16.90
2018-04-14T10:55:24.834Z,17.73
2018-04-14T10:57:52.721Z,17.60
2018-04-14T11:00:20.896Z,19.03
2018-04-14T11:02:49.064Z,17.40
2018-04-14T11:05:17.739Z,18.37
2018-04-14T11:07:46.131Z,17.60
2018-04-14T11:10:14.410Z,17.57
2018-04-14T11:12:42.478Z,17.80
2018-04-14T11:15:10.555Z,18.30
2018-04-14T11:17:39.043Z,22.17
2018-04-14T11:20:08.127Z,18.20
2018-04-14T11:22:36.610Z,17.63
2018-04-14T11:25:04.667Z,17.33
2018-04-14T11:27:33.061Z,17.37
2018-04-14T11:30:02.060Z,17.10
2018-04-14T11:32:31.037Z,16.50
2018-04-14T11:34:59.111Z,16.10
2018-04-14T11:37:27.560Z,14.17
2018-04-14T11:39:55.901Z,14.33
2018-04-14T11:42:24.854Z,15.30
2018-04-14T11:44:52.821Z,14.03
2018-04-14T11:47:20.974Z,14.00
2018-04-14T11:49:49.172Z,12.63
2018-04-14T11:52:17.353Z,13.00
2018-04-14T11:54:45.698Z,14.13
2018-04-14T11:57:13.926Z,13.03
2018-04-14T11:59:42.908Z,13.83
2018-04-14T12:02:11.647Z,13.57
2018-04-14T12:04:39.747Z,14.37
2018-04-14T12:07:08.226Z,14.40
2018-04-14T12:09:36.282Z,15.80
2018-04-14T12:12:04.392Z,15.30
2018-04-14T12:14:33.365Z,16.40
2018-04-14T12:17:03.181Z,14.93
2018-04-14T12:19:31.462Z,14.73
2018-04-14T12:21:59.833Z,15.47
2018-04-14T12:24:27.701Z,14.57
2018-04-14T12:26:55.566Z,16.63
2018-04-14T12:29:24.034Z,16.20
2018-04-14T12:31:52.427Z,15.53
2018-04-14T12:34:21.414Z,14.77
2018-04-14T12:36:49.758Z,14.23
2018-04-14T12:39:17.971Z,16.07
2018-04-14T12:41:46.038Z,15.73
2018-04-14T12:44:14.091Z,15.93
2018-04-14T12:46:42.487Z,14.77
2018-04-14T12:49:10.573Z,15.50
2018-04-14T12:51:38.794Z,15.03
2018-04-14T12:54:07.019Z,14.90
2018-04-14T12:56:36.420Z,13.70
2018-04-14T12:59:04.847Z,14.07
2018-04-14T13:01:33.265Z,14.40
2018-04-14T13:04:01.768Z,14.40
2018-04-14T13:06:30.969Z,15.20
2018-04-14T13:08:59.755Z,14.10
2018-04-14T13:11:29.683Z,12.20
2018-04-14T13:13:58.254Z,11.30
2018-04-14T13:16:27.202Z,12.43
2018-04-14T13:18:55.501Z,13.17
2018-04-14T13:21:23.959Z,14.33
2018-04-14T13:23:52.156Z,12.70
2018-04-14T13:26:20.633Z,12.10
2018-04-14T13:28:48.814Z,13.40
2018-04-14T13:31:17.379Z,11.90
2018-04-14T13:33:45.389Z,12.90
2018-04-14T13:36:14.358Z,13.50
2018-04-14T13:38:42.431Z,11.83
2018-04-14T13:41:11.040Z,12.57
2018-04-14T13:43:39.899Z,13.10
2018-04-14T13:46:07.865Z,12.63
2018-04-14T13:48:35.840Z,11.47
2018-04-14T13:51:04.396Z,12.57
2018-04-14T13:53:32.287Z,12.03
2018-04-14T13:56:01.486Z,11.73
2018-04-14T13:58:29.657Z,11.80
2018-04-14T14:00:57.778Z,10.47
2018-04-14T14:03:25.903Z,10.53
2018-04-14T14:05:54.280Z,11.33
2018-04-14T14:08:22.248Z,11.50
2018-04-14T14:10:50.112Z,11.10
2018-04-14T14:13:18.293Z,10.77
2018-04-14T14:15:46.360Z,11.07
2018-04-14T14:18:14.597Z,11.03
2018-04-14T14:20:42.607Z,10.77
2018-04-14T14:23:10.680Z,10.70
2018-04-14T14:25:39.041Z,9.80
2018-04-14T14:28:07.837Z,9.50
2018-04-14T14:30:35.710Z,9.23
2018-04-14T14:33:03.877Z,9.50
2018-04-14T14:35:32.162Z,9.40
2018-04-14T14:38:00.126Z,10.20
2018-04-14T14:40:28.605Z,9.13
2018-04-14T14:42:56.473Z,10.20
2018-04-14T14:45:24.440Z,9.30
2018-04-14T14:47:52.623Z,8.97
2018-04-14T14:50:26.113Z,9.30
2018-04-14T14:52:54.501Z,8.43
2018-04-14T14:55:22.727Z,9.67
2018-04-14T14:57:50.837Z,8.40
2018-04-14T15:00:18.663Z,9.60
2018-04-14T15:02:46.891Z,9.00
2018-04-14T15:05:15.972Z,10.27
2018-04-14T15:07:44.234Z,8.40
2018-04-14T15:10:12.216Z,8.33
2018-04-14T15:12:40.105Z,9.53
2018-04-14T15:15:08.970Z,8.60
2018-04-14T15:17:37.339Z,9.17
2018-04-14T15:20:06.582Z,8.40
2018-04-14T15:22:35.751Z,8.70
2018-04-14T15:25:04.574Z,9.10
2018-04-14T15:27:33.789Z,8.50
2018-04-14T15:30:01.804Z,8.30
2018-04-14T15:32:30.153Z,8.30
2018-04-14T15:34:58.592Z,7.90
2018-04-14T15:37:27.352Z,8.00
2018-04-14T15:39:55.419Z,8.00
2018-04-14T15:42:23.483Z,8.23
2018-04-14T15:44:51.661Z,8.13
2018-04-14T15:47:20.256Z,8.90
2018-04-14T15:49:48.215Z,8.10
2018-04-14T15:52:16.386Z,8.23
2018-04-14T15:54:44.349Z,8.60
2018-04-14T15:57:12.730Z,8.30
2018-04-14T15:59:40.698Z,8.30
2018-04-14T16:02:08.874Z,8.10
2018-04-14T16:04:36.854Z,8.50
2018-04-14T16:07:04.915Z,8.20
2018-04-14T16:09:33.003Z,7.87
2018-04-14T16:12:02.319Z,9.03
2018-04-14T16:14:30.252Z,10.27
2018-04-14T16:16:58.596Z,9.73
2018-04-14T16:19:26.861Z,9.20
2018-04-14T16:21:56.551Z,9.17
2018-04-14T16:24:25.404Z,9.00
2018-04-14T16:26:53.854Z,9.30
2018-04-14T16:29:22.161Z,8.90
2018-04-14T16:31:50.028Z,9.63
2018-04-14T16:34:17.912Z,9.07
2018-04-14T16:36:46.044Z,9.90
2018-04-14T16:39:14.469Z,9.43
2018-04-14T16:41:43.349Z,8.50
2018-04-14T16:44:11.201Z,8.53
2018-04-14T16:46:39.475Z,7.80
2018-04-14T16:49:07.806Z,9.70
2018-04-14T16:51:36.035Z,7.47
2018-04-14T16:54:04.602Z,10.00
2018-04-14T16:56:33.302Z,7.57
2018-04-14T16:59:01.676Z,7.20
2018-04-14T17:01:29.955Z,6.63
2018-04-14T17:03:58.158Z,7.60
2018-04-14T17:06:27.523Z,9.87
2018-04-14T17:08:56.010Z,7.50
2018-04-14T17:11:24.076Z,7.77
2018-04-14T17:13:52.351Z,7.77
2018-04-14T17:16:20.331Z,6.90
2018-04-14T17:18:48.293Z,7.83
2018-04-14T17:21:16.669Z,8.30
2018-04-14T17:23:44.707Z,8.20
2018-04-14T17:26:12.938Z,7.70
2018-04-14T17:28:42.113Z,7.90
2018-04-14T17:31:10.150Z,8.00
2018-04-14T17:33:38.053Z,8.73
2018-04-14T17:36:06.127Z,7.90
2018-04-14T17:38:35.011Z,7.60
2018-04-14T17:41:02.975Z,7.80
2018-04-14T17:43:31.513Z,8.30
2018-04-14T17:45:59.729Z,8.80
2018-04-14T17:48:28.792Z,8.20
2018-04-14T17:50:57.117Z,8.63
2018-04-14T17:53:25.602Z,8.53
2018-04-14T17:55:54.068Z,8.17
2018-04-14T17:58:22.249Z,9.40
2018-04-14T18:00:50.526Z,10.07
2018-04-14T18:03:18.756Z,11.17
2018-04-14T18:05:47.151Z,9.67
2018-04-14T18:08:15.665Z,10.97
2018-04-14T18:10:43.805Z,12.27
2018-04-14T18:13:12.420Z,11.50
2018-04-14T18:15:40.617Z,9.60
2018-04-14T18:18:09.479Z,11.13
2018-04-14T18:20:37.463Z,11.47
2018-04-14T18:23:06.640Z,10.90
2018-04-14T18:25:34.785Z,11.63
2018-04-14T18:28:03.097Z,10.50
2018-04-14T18:30:31.059Z,12.20
2018-04-14T18:32:59.604Z,11.47
2018-04-14T18:35:28.619Z,11.70
2018-04-14T18:37:56.597Z,10.70
2018-04-14T18:40:25.141Z,12.57
2018-04-14T18:42:53.255Z,10.30
2018-04-14T18:45:21.386Z,12.30
2018-04-14T18:47:50.090Z,33.10
2018-04-14T18:50:18.289Z,25.33
2018-04-14T18:52:46.160Z,17.63
2018-04-14T18:55:14.083Z,20.13
2018-04-14T18:57:42.496Z,17.53
2018-04-14T19:00:10.905Z,15.60
2018-04-14T19:02:39.770Z,15.50
2018-04-14T19:05:07.785Z,17.40
2018-04-14T19:07:35.905Z,15.93
2018-04-14T19:10:03.975Z,18.53
2018-04-14T19:12:32.587Z,19.67
2018-04-14T19:15:02.474Z,18.10
2018-04-14T19:17:30.502Z,18.70
2018-04-14T19:19:58.832Z,18.70
2018-04-14T19:22:26.800Z,18.40
2018-04-14T19:24:54.825Z,17.40
2018-04-14T19:27:22.936Z,18.03
2018-04-14T19:29:51.407Z,16.47
2018-04-14T19:32:19.529Z,17.73
2018-04-14T19:34:47.870Z,17.23
2018-04-14T19:37:16.038Z,16.47
2018-04-14T19:39:44.194Z,17.40
2018-04-14T19:42:12.383Z,17.00
2018-04-14T19:44:40.630Z,17.60
2018-04-14T19:47:09.477Z,18.30
2018-04-14T19:49:38.368Z,18.03
2018-04-14T19:52:07.636Z,18.00
2018-04-14T19:54:36.286Z,17.20
2018-04-14T19:57:05.499Z,17.00
2018-04-14T19:59:34.142Z,20.40
2018-04-14T20:02:03.333Z,24.93
2018-04-14T20:04:32.325Z,21.67
2018-04-14T20:07:01.747Z,19.63
2018-04-14T20:09:30.198Z,18.80
2018-04-14T20:11:58.932Z,18.90
2018-04-14T20:14:26.826Z,19.30
2018-04-14T20:16:55.117Z,18.53
2018-04-14T20:19:23.494Z,19.37
2018-04-14T20:21:51.652Z,16.13
2018-04-14T20:24:19.835Z,17.50
2018-04-14T20:26:47.963Z,15.13
2018-04-14T20:29:16.386Z,15.83
2018-04-14T20:31:44.659Z,15.13
2018-04-14T20:34:12.940Z,15.63
2018-04-14T20:36:41.210Z,15.87
2018-04-14T20:39:09.555Z,15.40
2018-04-14T20:41:37.864Z,16.73
2018-04-14T20:44:06.141Z,16.10
2018-04-14T20:46:34.223Z,15.63
2018-04-14T20:49:02.260Z,16.87
2018-04-14T20:51:30.249Z,16.13
2018-04-14T20:53:58.422Z,16.60
2018-04-14T20:56:26.497Z,16.40
2018-04-14T20:58:54.724Z,17.60
2018-04-14T21:01:22.836Z,17.10
2018-04-14T21:03:50.801Z,24.37
2018-04-14T21:06:18.667Z,21.87
2018-04-14T21:08:46.921Z,21.83
2018-04-14T21:11:17.241Z,20.97
2018-04-14T21:13:46.065Z,19.83
2018-04-14T21:16:14.203Z,19.33
2018-04-14T21:18:42.507Z,18.40
2018-04-14T21:21:10.893Z,18.63
2018-04-14T21:23:39.073Z,17.10
2018-04-14T21:26:07.373Z,17.17
2018-04-14T21:28:36.331Z,16.40
2018-04-14T21:31:04.438Z,17.13
2018-04-14T21:33:33.663Z,18.43
2018-04-14T21:36:02.286Z,18.90
2018-04-14T21:38:30.737Z,17.27
2018-04-14T21:40:59.756Z,18.70
2018-04-14T21:43:27.723Z,19.70
2018-04-14T21:45:56.103Z,18.20
2018-04-14T21:48:24.360Z,18.87
2018-04-14T21:50:55.966Z,19.60
2018-04-14T21:53:25.292Z,20.73
2018-04-14T21:55:53.507Z,20.43
2018-04-14T21:58:21.899Z,21.57
2018-04-14T22:00:50.326Z,22.47
2018-04-14T22:03:18.785Z,21.60
2018-04-14T22:05:47.150Z,21.27
2018-04-14T22:08:16.202Z,23.93
2018-04-14T22:10:44.698Z,23.40
2018-04-14T22:13:12.984Z,26.00
2018-04-14T22:15:41.147Z,25.20
2018-04-14T22:18:09.011Z,22.80
2018-04-14T22:20:37.267Z,23.30
2018-04-14T22:23:06.287Z,22.77
2018-04-14T22:25:34.531Z,25.90
2018-04-14T22:28:02.931Z,29.83
2018-04-14T22:30:30.988Z,29.80
2018-04-14T22:32:59.487Z,30.10
2018-04-14T22:35:28.610Z,31.90
2018-04-14T22:37:57.742Z,31.53
2018-04-14T22:40:26.978Z,30.60
2018-04-14T22:42:55.048Z,29.57
2018-04-14T22:45:23.393Z,30.43
2018-04-14T22:47:51.502Z,28.30
2018-04-14T22:50:19.319Z,27.13
2018-04-14T22:52:47.741Z,27.07
2018-04-14T22:55:15.767Z,26.30
2018-04-14T22:57:43.679Z,26.43
2018-04-14T23:00:12.158Z,27.03
2018-04-14T23:02:40.543Z,24.33
2018-04-14T23:05:08.605Z,23.87
2018-04-14T23:07:37.086Z,23.60
2018-04-14T23:10:05.363Z,22.80
2018-04-14T23:12:33.436Z,21.60
2018-04-14T23:15:01.398Z,23.90
2018-04-14T23:17:29.402Z,23.70
2018-04-14T23:19:58.361Z,23.13
2018-04-14T23:22:26.741Z,24.33
2018-04-14T23:24:54.919Z,22.70
2018-04-14T23:27:23.317Z,22.90
2018-04-14T23:29:52.073Z,21.67
2018-04-14T23:32:20.169Z,21.60
2018-04-14T23:34:49.054Z,23.53
2018-04-14T23:37:17.821Z,22.20
2018-04-14T23:39:46.111Z,22.07
2018-04-14T23:42:14.581Z,22.90
2018-04-14T23:44:42.653Z,23.47
2018-04-14T23:47:10.798Z,22.40
2018-04-14T23:49:38.854Z,24.43
2018-04-14T23:52:07.482Z,24.27
2018-04-14T23:54:35.442Z,22.93
2018-04-14T23:57:03.838Z,24.20
2018-04-14T23:59:32.914Z,23.93
